Time;durP1;ratioP1;P1;durP2;ratioP2;P2;SDS_P1;SDS_P2;PMS_P1;PMS_P2;Temp;Humidity;BMP_temperature;BMP_pressure;BME280_temperature;BME280_humidity;BME280_pressure;Samples;Min_cycle;Max_cycle;Signal;HPM_P1;HPM_P2
2022/03/04 00:01:56;;;;;;;43.43;22.37;;;;;;;-0.25;84.27;101235.09;4996710;28;20045;-73
2022/03/04 00:04:22;;;;;;;46.40;24.60;;;;;;;-0.28;84.44;101233.25;4997128;28;20042;-72
2022/03/04 00:06:47;;;;;;;51.40;25.13;;;;;;;-0.30;84.65;101231.38;4999928;28;20037;-72
2022/03/04 00:09:13;;;;;;;44.93;21.67;;;;;;;-0.29;84.81;101230.56;4998082;28;20030;-72
2022/03/04 00:11:38;;;;;;;43.23;22.10;;;;;;;-0.27;83.99;101239.31;4996639;28;20531;-72
2022/03/04 00:14:04;;;;;;;43.17;23.73;;;;;;;-0.27;84.24;101236.72;4999724;28;20062;-72
2022/03/04 00:16:29;;;;;;;48.00;23.20;;;;;;;-0.21;84.68;101234.41;4996982;28;20046;-72
2022/03/04 00:19:07;;;;;;;39.87;20.90;;;;;;;-0.15;83.78;101228.66;4999455;28;20045;-72
2022/03/04 00:21:37;;;;;;;41.90;21.17;;;;;;;-0.10;84.00;101243.63;4999948;28;20426;-73
2022/03/04 00:24:03;;;;;;;44.23;21.97;;;;;;;-0.13;84.11;101243.47;4997645;28;20103;-73
2022/03/04 00:26:29;;;;;;;40.27;22.03;;;;;;;-0.10;84.45;101242.75;4999622;28;20030;-73
2022/03/04 00:28:55;;;;;;;35.57;18.17;;;;;;;-0.09;83.71;101245.38;5002807;28;20484;-72
2022/03/04 00:31:21;;;;;;;40.93;20.83;;;;;;;-0.12;84.27;101240.06;4996941;28;20034;-72
2022/03/04 00:33:47;;;;;;;38.17;20.33;;;;;;;-0.07;84.62;101242.88;5001591;28;20042;-72
2022/03/04 00:36:12;;;;;;;42.87;21.10;;;;;;;-0.01;84.12;101243.16;5001572;28;20038;-72
2022/03/04 00:38:37;;;;;;;40.97;20.17;;;;;;;0.07;84.63;101247.00;4999854;28;20038;-73
2022/03/04 00:41:03;;;;;;;38.83;20.33;;;;;;;0.17;84.26;101253.53;5002830;28;20034;-73
2022/03/04 00:43:29;;;;;;;35.60;18.63;;;;;;;0.22;82.91;101255.53;5002924;28;20032;-72
2022/03/04 00:45:54;;;;;;;33.90;18.70;;;;;;;0.17;83.02;101251.84;5039189;28;20477;-72
2022/03/04 00:48:19;;;;;;;33.70;17.73;;;;;;;0.21;83.21;101255.47;5001525;28;20045;-73
2022/03/04 00:50:44;;;;;;;37.80;20.47;;;;;;;0.20;83.48;101256.28;5001140;28;20038;-72
2022/03/04 00:53:10;;;;;;;38.10;20.77;;;;;;;0.24;83.29;101250.44;5010493;28;20066;-73
2022/03/04 00:55:38;;;;;;;35.30;18.00;;;;;;;0.25;83.18;101247.00;5019324;27;20046;-72
2022/03/04 00:58:08;;;;;;;35.60;18.17;;;;;;;0.25;83.69;101253.91;5001331;28;20045;-72
2022/03/04 01:00:35;;;;;;;36.53;19.57;;;;;;;0.32;83.27;101253.38;5002549;28;20033;-72
2022/03/04 01:03:02;;;;;;;32.97;19.00;;;;;;;0.24;83.40;101244.31;4999859;28;20031;-73
2022/03/04 01:05:28;;;;;;;32.90;17.80;;;;;;;0.22;84.08;101246.88;5016623;28;20045;-73
2022/03/04 01:07:53;;;;;;;34.77;19.37;;;;;;;0.25;83.61;101259.09;5017053;28;20543;-72
2022/03/04 01:10:19;;;;;;;38.10;19.53;;;;;;;0.30;83.82;101260.19;4999693;28;20064;-73
2022/03/04 01:12:45;;;;;;;33.27;18.00;;;;;;;0.25;83.84;101247.00;5002333;28;20034;-72
2022/03/04 01:15:11;;;;;;;33.27;17.97;;;;;;;0.26;83.44;101253.97;5000466;28;20074;-72
2022/03/04 01:17:37;;;;;;;34.30;19.80;;;;;;;0.24;84.33;101253.03;5000765;28;20069;-72
2022/03/04 01:20:03;;;;;;;34.42;19.45;;;;;;;0.33;83.69;101255.16;5002102;28;20029;-72
2022/03/04 01:22:29;;;;;;;32.90;16.50;;;;;;;0.30;84.25;101255.91;4999234;28;20038;-72
2022/03/04 01:24:54;;;;;;;36.87;20.20;;;;;;;0.37;83.90;101234.59;5001875;28;20571;-72
2022/03/04 01:27:20;;;;;;;38.37;19.37;;;;;;;0.38;83.87;101244.16;5000909;28;20130;-73
2022/03/04 01:29:45;;;;;;;31.97;18.00;;;;;;;0.40;83.34;101239.03;5000058;28;20039;-73
2022/03/04 01:32:11;;;;;;;37.97;20.53;;;;;;;0.39;83.85;101234.66;4998418;28;20463;-73
2022/03/04 01:34:37;;;;;;;35.33;18.97;;;;;;;0.43;83.83;101237.47;5000828;28;20090;-73
2022/03/04 01:37:02;;;;;;;38.87;21.30;;;;;;;0.44;84.18;101234.03;5000526;28;20045;-73
2022/03/04 01:39:28;;;;;;;37.47;19.70;;;;;;;0.53;83.86;101227.50;5005095;28;20033;-73
2022/03/04 01:41:53;;;;;;;37.53;19.10;;;;;;;0.52;83.66;101233.50;5002815;28;20056;-74
2022/03/04 01:44:19;;;;;;;36.67;19.77;;;;;;;0.53;84.04;101232.72;5008739;28;20104;-74
2022/03/04 01:46:45;;;;;;;36.20;18.07;;;;;;;0.53;83.62;101223.19;5004245;28;20050;-74
2022/03/04 01:49:10;;;;;;;40.30;19.53;;;;;;;0.50;83.63;101237.75;4999374;28;20102;-74
2022/03/04 01:51:36;;;;;;;37.37;19.87;;;;;;;0.54;83.87;101224.09;5001084;28;20077;-74
2022/03/04 01:54:01;;;;;;;34.73;19.03;;;;;;;0.55;83.68;101233.66;4999101;28;20049;-73
2022/03/04 01:56:27;;;;;;;31.67;17.98;;;;;;;0.59;83.66;101230.38;5001839;28;20045;-73
2022/03/04 01:58:52;;;;;;;32.47;18.50;;;;;;;0.58;83.35;101226.00;4999974;28;20054;-73
2022/03/04 02:01:18;;;;;;;38.33;20.90;;;;;;;0.59;83.36;101232.97;4997907;28;20633;-73
2022/03/04 02:03:44;;;;;;;34.88;18.25;;;;;;;0.61;83.50;101228.75;4998087;28;20030;-73
2022/03/04 02:06:09;;;;;;;37.23;19.67;;;;;;;0.59;83.53;101225.19;5003610;28;20063;-73
2022/03/04 02:08:34;;;;;;;36.70;20.27;;;;;;;0.63;83.80;101221.91;5020534;28;20045;-73
2022/03/04 02:11:00;;;;;;;37.95;19.35;;;;;;;0.69;83.81;101222.19;5011791;28;20032;-73
2022/03/04 02:13:25;;;;;;;35.87;19.10;;;;;;;0.75;83.71;101216.38;5009283;28;20045;-73
2022/03/04 02:15:51;;;;;;;33.22;18.27;;;;;;;0.73;83.28;101211.09;5015032;28;20040;-73
2022/03/04 02:18:17;;;;;;;38.07;20.50;;;;;;;0.71;83.39;101217.94;5022514;28;20495;-73
2022/03/04 02:20:49;;;;;;;36.08;19.30;;;;;;;0.72;83.27;101213.63;5003918;28;20369;-74
2022/03/04 02:23:15;;;;;;;38.63;20.20;;;;;;;0.75;83.37;101213.78;5001156;28;20045;-74
2022/03/04 02:25:51;;;;;;;36.92;20.13;;;;;;;0.70;83.74;101216.16;5010002;28;20167;-74
2022/03/04 02:28:19;;;;;;;36.17;20.52;;;;;;;0.69;83.88;101213.50;5022039;28;20037;-74
2022/03/04 02:30:45;;;;;;;37.97;20.27;;;;;;;0.70;84.08;101218.75;4998311;28;20097;-74
2022/03/04 02:33:10;;;;;;;39.88;21.02;;;;;;;0.69;83.94;101219.59;5008797;28;20499;-74
2022/03/04 02:35:37;;;;;;;38.83;21.23;;;;;;;0.65;84.07;101209.88;5039566;28;20566;-74
2022/03/04 02:38:03;;;;;;;41.58;20.73;;;;;;;0.69;84.06;101208.31;5000518;28;20120;-74
2022/03/04 02:40:29;;;;;;;38.63;20.33;;;;;;;0.71;84.22;101210.16;4997071;28;20088;-74
2022/03/04 02:42:54;;;;;;;36.38;19.77;;;;;;;0.75;84.24;101201.66;5000746;28;20073;-74
2022/03/04 02:45:20;;;;;;;35.63;20.92;;;;;;;0.71;84.31;101211.84;4999270;28;20042;-74
2022/03/04 02:47:45;;;;;;;36.53;20.52;;;;;;;0.74;84.32;101212.88;4999282;28;20244;-73
2022/03/04 02:50:11;;;;;;;33.90;18.17;;;;;;;0.80;84.39;101218.34;5000489;28;20393;-74
2022/03/04 02:52:36;;;;;;;38.63;20.13;;;;;;;0.80;84.51;101226.13;4996550;28;20035;-74
2022/03/04 02:55:02;;;;;;;43.90;21.27;;;;;;;0.82;84.46;101226.22;5000669;28;20506;-74
2022/03/04 02:57:27;;;;;;;40.05;20.67;;;;;;;0.82;84.26;101221.91;5014444;28;20030;-73
2022/03/04 02:59:54;;;;;;;41.67;22.20;;;;;;;0.84;83.97;101224.59;4998663;28;20061;-73
2022/03/04 03:02:19;;;;;;;40.92;20.70;;;;;;;0.89;83.77;101223.03;5000639;28;20065;-73
2022/03/04 03:04:45;;;;;;;44.35;22.23;;;;;;;0.85;84.33;101226.34;4997672;28;20037;-73
2022/03/04 03:07:10;;;;;;;45.63;22.63;;;;;;;0.85;84.50;101231.53;5001439;28;20022;-74
2022/03/04 03:09:35;;;;;;;49.95;23.98;;;;;;;0.86;84.52;101233.31;5001544;28;20049;-73
2022/03/04 03:12:01;;;;;;;51.85;24.00;;;;;;;0.81;84.76;101230.53;4997864;28;20038;-73
2022/03/04 03:14:26;;;;;;;52.40;23.63;;;;;;;0.83;85.05;101235.78;5000812;28;20557;-73
2022/03/04 03:16:51;;;;;;;52.20;22.52;;;;;;;0.85;85.48;101235.03;4998321;28;20042;-73
2022/03/04 03:19:17;;;;;;;55.33;23.00;;;;;;;0.86;84.73;101238.50;4999432;28;20073;-74
2022/03/04 03:21:42;;;;;;;54.35;23.23;;;;;;;0.86;84.85;101233.31;4999569;28;20033;-73
2022/03/04 03:24:07;;;;;;;62.90;24.00;;;;;;;0.94;84.98;101238.84;4997648;28;20122;-73
2022/03/04 03:26:33;;;;;;;56.45;22.27;;;;;;;0.74;86.43;101236.28;4997615;28;20108;-73
2022/03/04 03:28:59;;;;;;;59.13;26.15;;;;;;;0.65;86.88;101241.03;4999792;28;20038;-73
2022/03/04 03:31:24;;;;;;;58.22;24.40;;;;;;;0.64;87.40;101241.88;4998793;28;20034;-73
2022/03/04 03:33:49;;;;;;;64.35;25.35;;;;;;;0.68;87.16;101238.56;4998180;28;20123;-74
2022/03/04 03:36:14;;;;;;;51.00;22.83;;;;;;;0.75;87.25;101232.84;4996941;28;20043;-74
2022/03/04 03:38:40;;;;;;;67.32;26.52;;;;;;;0.77;87.30;101233.81;5000142;28;20045;-74
2022/03/04 03:41:05;;;;;;;55.17;24.05;;;;;;;0.79;87.36;101241.69;5001089;28;20042;-73
2022/03/04 03:43:31;;;;;;;59.90;24.47;;;;;;;0.77;87.27;101233.81;4999238;28;20049;-74
2022/03/04 03:45:56;;;;;;;61.93;24.83;;;;;;;0.73;87.60;101241.38;4997680;28;20099;-74
2022/03/04 03:48:21;;;;;;;59.42;24.38;;;;;;;0.71;88.51;101233.53;5000204;28;20032;-74
2022/03/04 03:50:47;;;;;;;70.63;26.33;;;;;;;0.65;88.34;101230.66;4997679;28;20038;-74
2022/03/04 03:53:12;;;;;;;70.45;24.95;;;;;;;0.74;88.88;101228.47;4998773;28;20042;-74
2022/03/04 03:55:37;;;;;;;76.50;25.38;;;;;;;0.69;88.80;101240.38;5000106;28;20073;-74
2022/03/04 03:58:03;;;;;;;70.25;26.17;;;;;;;0.68;89.64;101233.38;5003082;28;20041;-74
2022/03/04 04:00:28;;;;;;;68.20;25.87;;;;;;;0.69;89.05;101235.16;5015895;28;20125;-74
2022/03/04 04:02:54;;;;;;;76.32;28.05;;;;;;;0.71;89.58;101245.63;5002521;28;20124;-74
2022/03/04 04:05:19;;;;;;;71.90;26.43;;;;;;;0.80;89.85;101254.72;4999772;28;20406;-74
2022/03/04 04:07:44;;;;;;;74.28;26.80;;;;;;;0.87;89.84;101246.38;5018247;28;20034;-74
2022/03/04 04:10:10;;;;;;;82.37;29.33;;;;;;;0.95;89.36;101253.66;5000534;28;20046;-74
2022/03/04 04:12:35;;;;;;;73.77;29.83;;;;;;;0.87;89.84;101255.91;5002886;28;20239;-74
2022/03/04 04:15:00;;;;;;;66.97;27.08;;;;;;;0.94;89.50;101257.03;5000947;28;20092;-74
2022/03/04 04:17:26;;;;;;;73.85;29.77;;;;;;;0.96;89.32;101250.22;5017741;28;20034;-74
2022/03/04 04:19:53;;;;;;;57.60;27.35;;;;;;;0.99;89.02;101260.75;5005299;28;20121;-74
2022/03/04 04:22:18;;;;;;;74.88;29.13;;;;;;;0.98;88.05;101256.38;5000018;28;20034;-74
2022/03/04 04:24:44;;;;;;;62.83;25.95;;;;;;;0.98;88.31;101254.66;5009081;28;20061;-74
2022/03/04 04:27:09;;;;;;;57.70;25.52;;;;;;;0.85;87.90;101255.81;5021231;28;20081;-74
2022/03/04 04:29:34;;;;;;;61.45;26.52;;;;;;;0.84;87.99;101255.78;4999601;28;20053;-74
2022/03/04 04:32:00;;;;;;;55.10;25.77;;;;;;;0.77;88.16;101254.59;5002889;28;20025;-74
2022/03/04 04:34:25;;;;;;;67.38;27.77;;;;;;;0.73;88.26;101264.78;4997354;28;20046;-74
2022/03/04 04:36:51;;;;;;;71.05;28.42;;;;;;;0.69;88.19;101266.34;5000896;28;20030;-74
2022/03/04 04:39:16;;;;;;;65.38;26.10;;;;;;;0.75;88.36;101263.13;5002186;28;20488;-74
2022/03/04 04:41:44;;;;;;;58.40;26.00;;;;;;;0.70;88.14;101267.22;5000130;28;20090;-74
2022/03/04 04:44:10;;;;;;;51.83;25.10;;;;;;;0.66;88.55;101263.63;5000317;28;20074;-74
2022/03/04 04:46:35;;;;;;;63.90;26.60;;;;;;;0.57;88.68;101268.38;5002088;28;20069;-74
2022/03/04 04:49:01;;;;;;;59.13;24.60;;;;;;;0.64;89.09;101265.25;5004614;28;20077;-77
2022/03/04 04:51:26;;;;;;;65.80;27.23;;;;;;;0.64;88.94;101270.44;5002351;28;20042;-75
2022/03/04 04:53:53;;;;;;;68.90;26.40;;;;;;;0.60;89.03;101271.09;4998775;28;20067;-75
2022/03/04 04:56:19;;;;;;;58.20;25.77;;;;;;;0.58;88.89;101272.78;5000801;28;20488;-75
2022/03/04 04:58:44;;;;;;;57.80;26.23;;;;;;;0.65;88.89;101275.72;5004167;28;20026;-76
2022/03/04 05:01:10;;;;;;;69.22;28.27;;;;;;;0.60;89.63;101268.50;5009690;28;20692;-76
2022/03/04 05:03:35;;;;;;;66.07;25.60;;;;;;;0.60;89.75;101271.09;5039074;28;20048;-75
2022/03/04 05:06:00;;;;;;;77.30;28.13;;;;;;;0.61;89.00;101260.81;5028971;28;20035;-75
2022/03/04 05:08:27;;;;;;;56.10;25.10;;;;;;;0.61;89.78;101258.19;5028070;28;20050;-76
2022/03/04 05:10:52;;;;;;;73.03;28.03;;;;;;;0.59;89.69;101259.84;5013228;28;20030;-76
2022/03/04 05:13:18;;;;;;;67.97;26.88;;;;;;;0.59;89.73;101266.75;5003306;28;20045;-76
2022/03/04 05:15:43;;;;;;;59.93;25.47;;;;;;;0.59;89.91;101254.63;5024156;28;20041;-76
2022/03/04 05:18:09;;;;;;;57.60;25.42;;;;;;;0.70;89.93;101265.53;5024789;28;20614;-76
2022/03/04 05:20:35;;;;;;;57.63;25.67;;;;;;;0.70;89.60;101257.72;5015087;28;20038;-76
2022/03/04 05:23:00;;;;;;;56.47;25.27;;;;;;;0.80;89.17;101257.31;5024736;28;20034;-76
2022/03/04 05:25:26;;;;;;;58.08;23.80;;;;;;;0.74;89.07;101250.97;5023741;28;20128;-76
2022/03/04 05:27:51;;;;;;;57.53;24.40;;;;;;;0.70;89.31;101256.84;4999853;28;20030;-76
2022/03/04 05:30:16;;;;;;;59.63;25.92;;;;;;;0.70;89.74;101259.44;5003963;28;20087;-75
2022/03/04 05:32:42;;;;;;;49.88;23.25;;;;;;;0.73;89.51;101263.06;5000824;28;20046;-76
2022/03/04 05:35:08;;;;;;;61.13;25.77;;;;;;;0.72;89.50;101263.88;4995874;28;20042;-76
2022/03/04 05:37:34;;;;;;;46.30;23.47;;;;;;;0.76;89.33;101263.22;5002153;28;20034;-76
2022/03/04 05:39:59;;;;;;;52.33;22.90;;;;;;;0.76;89.53;101262.31;4999708;28;20080;-76
2022/03/04 05:42:25;;;;;;;56.97;25.37;;;;;;;0.73;89.47;101268.25;5000280;28;20076;-76
2022/03/04 05:44:51;;;;;;;57.35;25.80;;;;;;;0.72;89.57;101273.41;5001607;28;20038;-76
2022/03/04 05:47:17;;;;;;;52.27;24.80;;;;;;;0.73;89.62;101270.84;5005342;28;20505;-76
2022/03/04 05:49:42;;;;;;;51.40;25.47;;;;;;;0.70;89.16;101273.31;5011180;28;20458;-76
2022/03/04 05:52:08;;;;;;;57.00;25.70;;;;;;;0.70;89.49;101275.03;5019524;28;20043;-76
2022/03/04 05:54:33;;;;;;;52.10;24.30;;;;;;;0.68;90.19;101277.53;5014618;28;20041;-76
2022/03/04 05:56:59;;;;;;;56.30;24.65;;;;;;;0.65;89.96;101280.00;5005311;28;20041;-76
2022/03/04 05:59:24;;;;;;;49.90;23.83;;;;;;;0.66;90.19;101294.78;5012935;28;20087;-76
2022/03/04 06:01:50;;;;;;;61.83;25.58;;;;;;;0.76;90.60;101289.19;5029477;28;20107;-76
2022/03/04 06:04:17;;;;;;;70.60;28.23;;;;;;;0.79;90.24;101288.44;5057991;28;20114;-76
2022/03/04 06:06:42;;;;;;;53.65;24.73;;;;;;;0.87;90.06;101290.56;5048796;28;20046;-76
2022/03/04 06:09:08;;;;;;;64.25;27.38;;;;;;;0.81;89.18;101302.38;5002340;28;20042;-76
2022/03/04 06:11:33;;;;;;;54.97;25.67;;;;;;;0.80;89.99;101301.50;4997112;28;20057;-76
2022/03/04 06:13:58;;;;;;;57.83;25.58;;;;;;;0.77;90.22;101306.56;4999207;28;20049;-76
2022/03/04 06:16:23;;;;;;;54.23;24.80;;;;;;;0.79;90.55;101294.53;5000841;28;20069;-76
2022/03/04 06:18:49;;;;;;;53.75;24.27;;;;;;;0.81;89.72;101311.09;5002425;28;20080;-76
2022/03/04 06:21:14;;;;;;;51.43;23.80;;;;;;;0.87;90.34;101307.88;5013343;28;20031;-76
2022/03/04 06:23:40;;;;;;;53.20;26.17;;;;;;;0.84;90.12;101302.53;4999764;28;20030;-76
2022/03/04 06:26:05;;;;;;;58.05;25.52;;;;;;;0.94;90.13;101301.22;5000045;28;20455;-76
2022/03/04 06:28:31;;;;;;;58.05;26.02;;;;;;;0.97;89.36;101294.47;4999140;28;20042;-76
2022/03/04 06:30:57;;;;;;;53.55;25.63;;;;;;;0.93;89.53;101294.25;5001121;28;20038;-77
2022/03/04 06:33:35;;;;;;;58.45;25.02;;;;;;;0.90;90.13;101296.72;4998686;28;20091;-76
2022/03/04 06:36:10;;;;;;;54.47;24.80;;;;;;;0.93;90.19;101294.25;4998360;28;20046;-76
2022/03/04 06:38:38;;;;;;;57.22;25.63;;;;;;;1.01;90.24;101288.56;4999669;28;20034;-76
2022/03/04 06:41:05;;;;;;;56.20;24.60;;;;;;;1.12;89.83;101294.25;4997285;28;20039;-76
2022/03/04 06:43:31;;;;;;;67.93;27.88;;;;;;;1.14;89.24;101295.22;5001223;28;20437;-75
2022/03/04 06:45:57;;;;;;;51.33;22.63;;;;;;;1.22;88.34;101296.44;5030350;28;20090;-76
2022/03/04 06:48:22;;;;;;;48.10;24.48;;;;;;;1.13;88.42;101296.03;5017515;28;20046;-76
2022/03/04 06:50:50;;;;;;;48.05;22.70;;;;;;;1.06;88.98;101307.88;5019388;28;20042;-76
2022/03/04 06:53:16;;;;;;;53.78;24.80;;;;;;;1.05;88.80;101315.63;5029838;28;20072;-75
2022/03/04 06:55:42;;;;;;;57.78;26.25;;;;;;;1.06;89.11;101313.06;5000748;28;20423;-76
2022/03/04 06:58:07;;;;;;;46.08;23.25;;;;;;;1.05;88.50;101308.72;5004695;28;20038;-76
2022/03/04 07:00:33;;;;;;;52.45;23.25;;;;;;;1.14;89.07;101321.22;5017419;28;20029;-76
2022/03/04 07:02:59;;;;;;;46.63;23.42;;;;;;;1.14;88.80;101312.53;5019193;28;20028;-76
2022/03/04 07:05:24;;;;;;;45.47;22.92;;;;;;;1.12;88.95;101309.84;5034959;28;20034;-75
2022/03/04 07:07:50;;;;;;;49.20;23.38;;;;;;;1.15;88.91;101309.97;5015563;28;20045;-76
2022/03/04 07:10:16;;;;;;;43.65;22.23;;;;;;;1.26;88.37;101313.97;5022988;28;20465;-76
2022/03/04 07:12:41;;;;;;;52.40;23.23;;;;;;;1.29;88.14;101314.09;5015192;28;20149;-76
2022/03/04 07:15:09;;;;;;;46.70;23.02;;;;;;;1.26;87.71;101313.09;5001002;28;20046;-76
2022/03/04 07:17:35;;;;;;;46.72;23.95;;;;;;;1.27;87.91;101317.44;4998665;28;20104;-76
2022/03/04 07:20:00;;;;;;;49.15;24.08;;;;;;;1.30;88.29;101315.84;4998956;28;20030;-76
2022/03/04 07:22:25;;;;;;;58.38;27.50;;;;;;;1.24;87.99;101310.41;5011852;28;20053;-76
2022/03/04 07:24:51;;;;;;;50.25;24.75;;;;;;;1.23;87.82;101313.84;4999841;28;20048;-76
2022/03/04 07:27:16;;;;;;;45.25;23.63;;;;;;;1.23;87.77;101323.31;4997995;28;20128;-76
2022/03/04 07:29:42;;;;;;;47.95;23.75;;;;;;;1.22;88.48;101327.63;4999445;28;20674;-76
2022/03/04 07:32:07;;;;;;;51.33;26.15;;;;;;;1.20;87.96;101331.00;4999310;28;20064;-76
2022/03/04 07:34:34;;;;;;;50.67;24.38;;;;;;;1.08;88.12;101328.75;5002553;28;20034;-76
2022/03/04 07:36:59;;;;;;;55.97;26.50;;;;;;;1.10;87.90;101337.47;5036066;28;20065;-75
2022/03/04 07:39:25;;;;;;;53.90;27.05;;;;;;;1.10;88.16;101337.47;5013730;28;20079;-75
2022/03/04 07:41:51;;;;;;;61.88;26.80;;;;;;;1.10;88.40;101340.09;5004533;28;20022;-76
2022/03/04 07:44:24;;;;;;;54.15;26.63;;;;;;;1.19;88.28;101337.03;5006523;28;20040;-76
2022/03/04 07:46:50;;;;;;;52.00;25.35;;;;;;;1.21;88.30;101332.78;4998131;28;20038;-75
2022/03/04 07:49:15;;;;;;;53.47;25.90;;;;;;;1.25;87.82;101345.97;4998648;28;20133;-76
2022/03/04 07:51:41;;;;;;;50.20;23.98;;;;;;;1.27;87.64;101346.94;4999436;28;20042;-76
2022/03/04 07:54:06;;;;;;;51.75;24.55;;;;;;;1.26;87.44;101349.50;4997200;28;20050;-76
2022/03/04 07:56:31;;;;;;;48.42;25.25;;;;;;;1.30;87.39;101354.88;5023738;28;20076;-76
2022/03/04 07:58:57;;;;;;;58.95;27.10;;;;;;;1.34;87.05;101349.81;5026144;28;20039;-76
2022/03/04 08:01:22;;;;;;;56.78;27.65;;;;;;;1.29;86.90;101355.72;5007393;28;20467;-76
2022/03/04 08:03:48;;;;;;;56.95;27.45;;;;;;;1.25;86.95;101363.28;5012049;28;20385;-76
2022/03/04 08:06:13;;;;;;;59.13;26.67;;;;;;;1.28;87.42;101355.63;4995706;28;20129;-76
2022/03/04 08:08:39;;;;;;;59.40;28.95;;;;;;;1.28;87.07;101358.22;4999371;28;20038;-76
2022/03/04 08:11:05;;;;;;;56.30;27.98;;;;;;;1.34;86.69;101363.72;5001496;28;20448;-76
2022/03/04 08:13:31;;;;;;;57.15;26.85;;;;;;;1.31;86.73;101367.06;4997857;28;20030;-76
2022/03/04 08:15:57;;;;;;;55.20;26.95;;;;;;;1.28;86.46;101364.34;5006125;28;20053;-76
2022/03/04 08:18:23;;;;;;;51.65;25.23;;;;;;;1.31;86.32;101367.06;5020160;28;20081;-76
2022/03/04 08:20:48;;;;;;;65.65;27.13;;;;;;;1.42;86.14;101371.88;5014476;28;20523;-76
2022/03/04 08:23:13;;;;;;;57.55;27.02;;;;;;;1.47;85.16;101375.56;4997767;28;20054;-76
2022/03/04 08:25:39;;;;;;;63.20;29.10;;;;;;;1.34;85.50;101379.31;5000682;28;20034;-76
2022/03/04 08:28:05;;;;;;;59.05;26.42;;;;;;;1.24;86.06;101388.41;5005926;28;20029;-75
2022/03/04 08:30:31;;;;;;;58.55;27.30;;;;;;;1.20;86.76;101386.47;5033398;28;20026;-76
2022/03/04 08:32:56;;;;;;;58.65;27.67;;;;;;;1.42;86.63;101387.47;4998024;28;20512;-76
2022/03/04 08:35:22;;;;;;;61.15;28.67;;;;;;;1.46;84.80;101377.25;4998323;28;20403;-76
2022/03/04 08:37:47;;;;;;;55.17;27.00;;;;;;;1.44;85.24;101380.59;5014735;28;20433;-76
2022/03/04 08:40:13;;;;;;;63.38;28.30;;;;;;;1.50;85.63;101388.69;4996914;28;20038;-76
2022/03/04 08:42:40;;;;;;;61.63;28.50;;;;;;;1.62;84.85;101383.13;4998187;28;20125;-76
2022/03/04 08:45:06;;;;;;;50.15;25.83;;;;;;;1.58;84.06;101389.03;5014119;28;20034;-76
2022/03/04 08:47:31;;;;;;;52.60;25.73;;;;;;;1.60;84.60;101390.88;4997783;28;20496;-76
2022/03/04 08:49:57;;;;;;;56.88;27.35;;;;;;;1.74;84.93;101386.28;5037990;28;20031;-76
2022/03/04 08:52:22;;;;;;;54.08;24.50;;;;;;;1.90;83.53;101390.41;5028999;27;20041;-76
2022/03/04 08:54:48;;;;;;;54.10;26.75;;;;;;;1.82;83.67;101394.41;5001746;28;20049;-75
2022/03/04 08:57:13;;;;;;;54.83;27.70;;;;;;;1.86;82.69;101391.09;5000234;28;20452;-76
2022/03/04 08:59:39;;;;;;;54.65;25.88;;;;;;;1.89;83.36;101397.34;5002940;28;20087;-76
2022/03/04 09:02:05;;;;;;;55.00;25.75;;;;;;;1.89;82.41;101391.25;5003195;28;20046;-76
2022/03/04 09:04:30;;;;;;;49.67;25.02;;;;;;;1.84;82.74;101392.78;4999765;28;20049;-76
2022/03/04 09:06:56;;;;;;;55.92;26.75;;;;;;;1.93;82.83;101398.34;5015729;28;20060;-76
2022/03/04 09:09:21;;;;;;;55.10;28.23;;;;;;;2.00;82.30;101395.19;5020930;28;20034;-75
2022/03/04 09:11:47;;;;;;;55.92;27.58;;;;;;;2.08;82.13;101391.19;5024979;28;20041;-75
2022/03/04 09:14:12;;;;;;;52.40;28.27;;;;;;;2.17;81.69;101394.19;5001646;28;20068;-76
2022/03/04 09:16:38;;;;;;;56.45;27.23;;;;;;;2.22;81.45;101393.47;5012601;28;20022;-76
2022/03/04 09:19:03;;;;;;;58.40;29.10;;;;;;;2.30;80.91;101394.69;5005527;28;20038;-76
2022/03/04 09:21:29;;;;;;;59.05;27.55;;;;;;;2.19;80.74;101397.72;4999006;28;20045;-76
2022/03/04 09:23:54;;;;;;;49.35;25.75;;;;;;;2.21;80.47;101394.31;5011851;28;20031;-75
2022/03/04 09:26:21;;;;;;;55.28;25.77;;;;;;;2.32;81.45;101403.47;5017672;28;20067;-76
2022/03/04 09:28:47;;;;;;;51.97;28.13;;;;;;;2.37;80.47;101396.72;5012635;28;20038;-76
2022/03/04 09:31:13;;;;;;;50.50;26.23;;;;;;;2.40;80.57;101392.53;5011097;28;20034;-76
2022/03/04 09:33:38;;;;;;;53.05;28.65;;;;;;;2.52;80.79;101391.25;5011893;28;20095;-76
2022/03/04 09:36:05;;;;;;;46.42;24.52;;;;;;;2.68;80.09;101397.97;5050361;28;20551;-76
2022/03/04 09:38:31;;;;;;;48.50;26.08;;;;;;;2.77;79.96;101396.59;5012735;28;20545;-76
2022/03/04 09:40:58;;;;;;;50.47;26.98;;;;;;;2.89;79.00;101393.59;5002918;28;20124;-77
2022/03/04 09:43:23;;;;;;;52.58;25.98;;;;;;;2.83;77.56;101399.47;4999355;28;20516;-76
2022/03/04 09:45:49;;;;;;;46.08;24.58;;;;;;;2.68;78.95;101387.53;5001155;28;20034;-76
2022/03/04 09:48:17;;;;;;;55.65;26.02;;;;;;;2.69;78.98;101400.63;4997878;28;20507;-76
2022/03/04 09:50:47;;;;;;;46.33;22.45;;;;;;;2.66;79.07;101399.63;4999025;28;20038;-76
2022/03/04 09:53:14;;;;;;;55.80;25.65;;;;;;;2.59;78.66;101399.38;5000829;28;20145;-73
2022/03/04 09:55:41;;;;;;;47.65;25.95;;;;;;;2.56;79.19;101394.03;5000488;28;20034;-73
2022/03/04 09:58:17;;;;;;;46.95;24.63;;;;;;;2.62;78.91;101403.84;5018333;28;20147;-73
2022/03/04 10:00:44;;;;;;;46.78;23.55;;;;;;;2.56;78.93;101407.06;5010866;28;20062;-73
2022/03/04 10:03:28;;;;;;;48.75;22.73;;;;;;;2.54;78.97;101406.13;5015769;28;20030;-73
2022/03/04 10:05:56;;;;;;;47.70;24.35;;;;;;;2.69;79.53;101399.72;5011187;28;20484;-73
2022/03/04 10:08:22;;;;;;;53.60;24.10;;;;;;;2.86;77.76;101401.31;5024372;28;20041;-73
2022/03/04 10:10:56;;;;;;;48.13;25.52;;;;;;;2.88;78.79;101406.56;4998699;28;20399;-73
2022/03/04 10:13:44;;;;;;;47.60;23.98;;;;;;;3.06;77.79;101396.84;5005395;28;20038;-73
2022/03/04 10:16:32;;;;;;;49.38;23.20;;;;;;;2.91;77.87;101391.94;4997289;28;20034;-73
2022/03/04 10:19:19;;;;;;;44.55;22.95;;;;;;;2.93;77.96;101394.59;5000378;28;20117;-73
2022/03/04 10:21:56;;;;;;;38.78;21.83;;;;;;;3.05;77.50;101395.94;5005706;28;20048;-73
2022/03/04 10:24:36;;;;;;;44.63;22.17;;;;;;;3.15;77.36;101391.09;5008971;28;20042;-73
2022/03/04 10:27:12;;;;;;;40.55;22.20;;;;;;;3.29;76.83;101400.31;4998392;28;20035;-73
2022/03/04 10:29:49;;;;;;;42.35;22.50;;;;;;;3.44;76.30;101394.78;5031789;28;20032;-73
2022/03/04 10:32:16;;;;;;;46.83;23.00;;;;;;;3.39;75.28;101401.56;5009299;28;20045;-73
2022/03/04 10:34:51;;;;;;;41.22;22.77;;;;;;;3.24;75.51;101407.09;5048635;28;20042;-73
2022/03/04 10:37:51;;;;;;;36.42;20.85;;;;;;;3.08;76.04;101396.06;5018829;28;20071;-73
2022/03/04 10:40:19;;;;;;;37.67;21.05;;;;;;;3.20;76.53;101400.88;5026257;28;20053;-72
2022/03/04 10:42:46;;;;;;;37.97;21.08;;;;;;;3.23;75.50;101400.09;5015508;28;20034;-73
2022/03/04 10:45:23;;;;;;;42.88;22.13;;;;;;;3.18;76.41;101401.63;4999651;28;20487;-73
2022/03/04 10:47:50;;;;;;;38.65;20.40;;;;;;;3.28;75.72;101406.38;4996449;28;20042;-73
2022/03/04 10:50:19;;;;;;;41.65;22.33;;;;;;;3.33;75.62;101402.22;4996901;28;20094;-73
2022/03/04 10:52:53;;;;;;;39.33;21.02;;;;;;;3.37;75.29;101403.22;5008930;28;20040;-73
2022/03/04 10:55:42;;;;;;;37.47;21.75;;;;;;;3.47;75.37;101408.81;5017113;28;20045;-73
2022/03/04 10:58:22;;;;;;;39.30;21.80;;;;;;;3.65;74.34;101392.94;5003575;28;20124;-73
2022/03/04 11:00:52;;;;;;;37.65;20.70;;;;;;;3.65;74.00;101399.88;5030520;28;20030;-73
2022/03/04 11:03:21;;;;;;;34.63;20.05;;;;;;;3.90;73.82;101394.72;5022881;28;20036;-73
2022/03/04 11:05:47;;;;;;;35.47;20.45;;;;;;;3.97;73.33;101398.41;5011126;28;20034;-73
2022/03/04 11:08:13;;;;;;;33.22;18.98;;;;;;;3.86;72.19;101395.41;5029843;28;20033;-73
2022/03/04 11:10:38;;;;;;;38.65;20.27;;;;;;;3.87;72.66;101391.97;5016623;28;20038;-73
2022/03/04 11:13:05;;;;;;;36.38;20.73;;;;;;;4.02;72.80;101395.97;5021197;28;20035;-74
2022/03/04 11:15:32;;;;;;;37.30;20.25;;;;;;;4.01;71.50;101391.53;5041241;28;20117;-73